Time;durP1;ratioP1;P1;durP2;ratioP2;P2;SDS_P1;SDS_P2;PMS_P1;PMS_P2;Temp;Humidity;BMP_temperature;BMP_pressure;BME280_temperature;BME280_humidity;BME280_pressure;Samples;Min_cycle;Max_cycle;Signal;HPM_P1;HPM_P2
2021/04/19 00:02:17;;;;;;;19.17;13.77;;;;;;;9.97;79.98;101278.38;5062824;28;20209;-69
2021/04/19 00:04:43;;;;;;;14.93;12.90;;;;;;;9.96;80.00;101264.19;5067027;28;20235;-68
2021/04/19 00:07:09;;;;;;;18.93;14.43;;;;;;;9.96;79.91;101273.97;5069456;28;20294;-68
2021/04/19 00:09:36;;;;;;;15.83;13.83;;;;;;;9.95;80.41;101270.47;5069649;28;20221;-69
2021/04/19 00:12:03;;;;;;;16.87;14.80;;;;;;;9.95;80.62;101274.91;5068374;28;20211;-68
2021/04/19 00:14:30;;;;;;;16.60;14.50;;;;;;;9.93;80.59;101264.34;5070718;28;20193;-69
2021/04/19 00:16:56;;;;;;;17.97;14.50;;;;;;;9.92;80.16;101262.63;5067167;28;20212;-67
2021/04/19 00:19:22;;;;;;;18.37;14.83;;;;;;;9.93;80.27;101255.50;5065436;28;20231;-69
2021/04/19 00:21:48;;;;;;;17.23;14.20;;;;;;;9.93;81.00;101269.66;5065491;28;20213;-68
2021/04/19 00:24:14;;;;;;;16.00;13.83;;;;;;;9.95;80.58;101261.59;5067987;28;20221;-69
2021/04/19 00:26:40;;;;;;;14.83;12.83;;;;;;;9.94;80.64;101275.84;5068556;28;20287;-68
2021/04/19 00:29:06;;;;;;;16.27;14.17;;;;;;;9.93;80.83;101263.47;5069354;28;20687;-68
2021/04/19 00:31:33;;;;;;;16.60;13.93;;;;;;;9.92;80.86;101262.63;5065211;28;20204;-67
2021/04/19 00:34:02;;;;;;;16.33;14.40;;;;;;;9.91;80.36;101263.56;5068239;28;20204;-69
2021/04/19 00:36:28;;;;;;;21.50;14.90;;;;;;;9.91;80.59;101270.69;5072480;28;20728;-68
2021/04/19 00:38:54;;;;;;;18.47;14.83;;;;;;;9.90;81.12;101271.63;5067987;28;20235;-68
2021/04/19 00:41:20;;;;;;;20.17;15.50;;;;;;;9.89;80.50;101265.44;5060888;28;20359;-68
2021/04/19 00:43:46;;;;;;;20.97;14.80;;;;;;;9.90;81.30;101266.28;5058432;28;20222;-68
2021/04/19 00:46:13;;;;;;;17.77;14.30;;;;;;;9.87;80.82;101267.31;5063810;28;20259;-68
2021/04/19 00:48:40;;;;;;;12.67;11.33;;;;;;;9.86;81.37;101267.38;5064722;28;20200;-68
2021/04/19 00:51:07;;;;;;;14.83;12.43;;;;;;;9.83;80.96;101267.56;5070688;28;20221;-68
2021/04/19 00:53:34;;;;;;;13.63;12.07;;;;;;;9.80;80.96;101262.41;5075473;28;20209;-68
2021/04/19 00:56:00;;;;;;;10.43;8.63;;;;;;;9.77;80.84;101265.19;5067993;28;20256;-68
2021/04/19 00:58:32;;;;;;;10.43;8.30;;;;;;;9.73;81.38;101265.34;5065425;28;20580;-68
2021/04/19 01:00:58;;;;;;;9.30;7.83;;;;;;;9.69;81.18;101266.44;5068005;28;20221;-68
2021/04/19 01:03:24;;;;;;;11.07;8.60;;;;;;;9.63;80.67;101266.75;5071689;28;20298;-66
2021/04/19 01:05:52;;;;;;;10.80;9.07;;;;;;;9.61;81.31;101267.75;5072040;28;20205;-68
2021/04/19 01:08:19;;;;;;;10.20;8.70;;;;;;;9.58;81.28;101273.22;5073871;28;20201;-68
2021/04/19 01:10:45;;;;;;;10.83;9.60;;;;;;;9.56;80.69;101267.97;5075414;28;20220;-68
2021/04/19 01:13:12;;;;;;;10.23;9.10;;;;;;;9.54;81.51;101269.00;5067961;28;20205;-68
2021/04/19 01:15:38;;;;;;;12.17;10.17;;;;;;;9.54;81.40;101272.50;5068121;28;20215;-68
2021/04/19 01:18:05;;;;;;;12.90;11.20;;;;;;;9.53;81.00;101276.09;5059894;28;20734;-67
2021/04/19 01:20:32;;;;;;;13.77;11.20;;;;;;;9.51;81.43;101267.34;5068304;28;20220;-67
2021/04/19 01:22:59;;;;;;;15.30;12.10;;;;;;;9.50;81.53;101272.72;5065060;28;20267;-67
2021/04/19 01:25:27;;;;;;;14.33;12.73;;;;;;;9.49;81.07;101269.25;5066233;28;20201;-67
2021/04/19 01:27:54;;;;;;;15.97;13.03;;;;;;;9.47;81.35;101271.13;5064987;28;20586;-66
2021/04/19 01:30:23;;;;;;;18.47;14.47;;;;;;;9.49;81.35;101273.69;5066070;28;20220;-67
2021/04/19 01:32:49;;;;;;;19.60;14.77;;;;;;;9.47;81.67;101264.94;5067444;28;20200;-67
2021/04/19 01:35:16;;;;;;;19.70;16.20;;;;;;;9.47;81.81;101271.13;5061196;28;20581;-67
2021/04/19 01:37:42;;;;;;;18.77;14.97;;;;;;;9.47;82.18;101259.63;5061190;28;20561;-67
2021/04/19 01:40:12;;;;;;;19.77;15.00;;;;;;;9.46;82.07;101266.72;5065798;28;20233;-67
2021/04/19 01:42:38;;;;;;;21.80;15.70;;;;;;;9.45;81.64;101267.66;5061983;28;20201;-66
2021/04/19 01:45:06;;;;;;;19.00;15.20;;;;;;;9.45;81.84;101270.31;5067676;28;20229;-67
2021/04/19 01:47:33;;;;;;;21.67;15.30;;;;;;;9.45;81.85;101264.16;5064105;28;20650;-66
2021/04/19 01:49:59;;;;;;;20.40;15.70;;;;;;;9.45;82.36;101267.66;5062360;28;20651;-67
2021/04/19 01:52:25;;;;;;;20.23;16.30;;;;;;;9.45;82.21;101270.31;5069002;28;20204;-66
2021/04/19 01:54:51;;;;;;;20.03;15.27;;;;;;;9.46;82.42;101265.88;5060641;28;20663;-67
2021/04/19 01:57:18;;;;;;;23.23;16.53;;;;;;;9.45;82.17;101265.00;5069086;28;20597;-67
2021/04/19 01:59:44;;;;;;;22.90;16.73;;;;;;;9.45;81.89;101267.66;5059374;28;20239;-67
2021/04/19 02:02:18;;;;;;;23.23;16.53;;;;;;;9.45;81.79;101264.16;5066146;28;20197;-68
2021/04/19 02:04:56;;;;;;;23.27;16.10;;;;;;;9.45;82.74;101272.13;5071732;28;20240;-66
2021/04/19 02:07:28;;;;;;;21.63;16.33;;;;;;;9.44;82.80;101265.06;5072182;28;20205;-68
2021/04/19 02:10:01;;;;;;;22.03;17.40;;;;;;;9.42;82.72;101262.50;5066810;28;20709;-67
2021/04/19 02:12:40;;;;;;;22.87;17.50;;;;;;;9.41;82.94;101276.72;5069609;28;20250;-68
2021/04/19 02:15:11;;;;;;;24.23;17.73;;;;;;;9.39;82.98;101267.94;5066355;28;20201;-68
2021/04/19 02:17:47;;;;;;;24.57;19.13;;;;;;;9.37;82.91;101278.66;5069614;28;20215;-68
2021/04/19 02:20:20;;;;;;;25.07;19.07;;;;;;;9.37;82.53;101269.81;5070412;28;20605;-68
2021/04/19 02:22:52;;;;;;;26.00;18.70;;;;;;;9.35;83.04;101269.03;5070193;28;20213;-68
2021/04/19 02:25:21;;;;;;;28.93;19.10;;;;;;;9.34;83.04;101269.97;5067491;28;20201;-68
2021/04/19 02:27:54;;;;;;;30.67;20.13;;;;;;;9.34;83.31;101269.97;5065621;28;20601;-68
2021/04/19 02:30:24;;;;;;;29.10;20.63;;;;;;;9.33;82.57;101265.56;5068960;28;20231;-68
2021/04/19 02:32:52;;;;;;;30.53;21.93;;;;;;;9.33;83.44;101274.41;5070090;28;20204;-68
2021/04/19 02:35:23;;;;;;;28.27;21.03;;;;;;;9.33;83.13;101271.75;5061351;28;20569;-68
2021/04/19 02:37:50;;;;;;;33.43;22.93;;;;;;;9.32;83.25;101266.50;5069350;28;20212;-68
2021/04/19 02:40:19;;;;;;;32.60;22.87;;;;;;;9.32;83.53;101258.53;5070807;28;20224;-68
2021/04/19 02:42:50;;;;;;;31.40;21.97;;;;;;;9.32;83.67;101269.16;5067658;28;20208;-68
2021/04/19 02:45:17;;;;;;;34.27;22.80;;;;;;;9.34;83.60;101269.97;5070443;28;20201;-67
2021/04/19 02:47:46;;;;;;;33.97;23.17;;;;;;;9.32;83.37;101266.50;5066111;28;20351;-69
2021/04/19 02:50:14;;;;;;;38.17;24.50;;;;;;;9.31;83.34;101271.00;5062965;28;20282;-68
2021/04/19 02:52:42;;;;;;;36.93;24.07;;;;;;;9.32;83.86;101266.50;5064014;28;20209;-68
2021/04/19 02:55:10;;;;;;;38.13;24.60;;;;;;;9.31;83.84;101267.47;5069737;28;20201;-67
2021/04/19 02:57:43;;;;;;;38.20;24.80;;;;;;;9.31;83.83;101273.66;5068314;28;20205;-68
2021/04/19 03:00:12;;;;;;;40.67;26.03;;;;;;;9.30;83.27;101263.09;5065156;28;20278;-69
2021/04/19 03:02:42;;;;;;;39.50;26.60;;;;;;;9.29;83.50;101264.91;5068412;28;20205;-68
2021/04/19 03:05:11;;;;;;;36.10;25.50;;;;;;;9.29;84.19;101259.56;5064216;28;20228;-68
2021/04/19 03:07:40;;;;;;;40.07;25.37;;;;;;;9.28;83.58;101257.84;5067523;28;20250;-68
2021/04/19 03:10:11;;;;;;;37.73;25.20;;;;;;;9.28;83.56;101262.31;5065846;28;20304;-68
2021/04/19 03:12:41;;;;;;;45.90;26.83;;;;;;;9.27;83.79;101263.25;5058570;28;20579;-68
2021/04/19 03:15:12;;;;;;;41.23;26.67;;;;;;;9.26;84.02;101256.19;5065887;28;20201;-69
2021/04/19 03:17:40;;;;;;;39.30;26.50;;;;;;;9.25;83.84;101273.06;5057910;28;20587;-67
2021/04/19 03:20:10;;;;;;;41.50;27.03;;;;;;;9.23;83.46;101266.97;5061557;28;20225;-68
2021/04/19 03:22:40;;;;;;;47.53;27.07;;;;;;;9.23;83.76;101272.28;5075991;22;20792;-67
2021/04/19 03:25:09;;;;;;;38.53;26.13;;;;;;;9.21;83.26;101268.84;5062486;28;20227;-67
2021/04/19 03:27:36;;;;;;;37.37;25.27;;;;;;;9.19;84.16;101271.56;5053378;28;20623;-67
2021/04/19 03:30:04;;;;;;;41.23;26.20;;;;;;;9.19;84.13;101274.22;5064893;28;20197;-68
2021/04/19 03:32:33;;;;;;;39.00;26.17;;;;;;;9.17;83.55;101276.09;5050778;28;20222;-67
2021/04/19 03:35:04;;;;;;;40.87;27.03;;;;;;;9.17;83.15;101280.53;5041177;28;20205;-67
2021/04/19 03:37:32;;;;;;;42.77;26.27;;;;;;;9.15;84.44;101269.97;5041474;28;20203;-68
2021/04/19 03:40:01;;;;;;;37.20;25.73;;;;;;;9.15;83.72;101267.31;5037330;28;20209;-68
2021/04/19 03:42:29;;;;;;;41.57;26.13;;;;;;;9.13;83.45;101276.34;5043619;28;20228;-67
2021/04/19 03:44:57;;;;;;;43.23;26.40;;;;;;;9.10;83.24;101271.16;5043245;28;20222;-67
2021/04/19 03:47:25;;;;;;;46.07;26.57;;;;;;;9.07;83.36;101269.50;5040371;28;20683;-66
2021/04/19 03:49:56;;;;;;;43.77;25.93;;;;;;;9.03;83.53;101263.47;5042371;28;20217;-67
2021/04/19 03:52:28;;;;;;;38.90;24.67;;;;;;;9.02;84.08;101268.84;5037700;28;20225;-67
2021/04/19 03:54:56;;;;;;;43.07;26.57;;;;;;;8.99;83.96;101268.97;5039254;28;20202;-67
2021/04/19 03:57:25;;;;;;;40.13;25.67;;;;;;;8.96;83.73;101262.00;5041261;28;20206;-68
2021/04/19 03:59:54;;;;;;;41.23;27.00;;;;;;;8.92;83.46;101263.13;5040270;28;20539;-68
2021/04/19 04:02:22;;;;;;;43.83;25.60;;;;;;;8.91;84.14;101263.19;5047026;28;20226;-67
2021/04/19 04:04:50;;;;;;;45.10;27.43;;;;;;;8.89;84.11;101265.06;5035606;28;20252;-67
2021/04/19 04:07:17;;;;;;;46.37;25.80;;;;;;;8.85;83.39;101260.81;5033479;28;20301;-68
2021/04/19 04:09:45;;;;;;;39.37;25.03;;;;;;;8.80;83.60;101266.31;5035210;28;20244;-67
2021/04/19 04:12:12;;;;;;;38.87;25.60;;;;;;;8.75;83.11;101263.03;5034601;28;20225;-67
2021/04/19 04:14:49;;;;;;;37.27;24.27;;;;;;;8.71;82.96;101269.41;5037839;28;20573;-68
2021/04/19 04:17:15;;;;;;;39.40;25.07;;;;;;;8.65;83.56;101270.53;5037377;28;20208;-67
2021/04/19 04:19:41;;;;;;;38.73;25.73;;;;;;;8.61;83.65;101268.94;5035587;28;20203;-68
2021/04/19 04:22:08;;;;;;;38.43;25.03;;;;;;;8.58;83.92;101278.88;5038341;28;20626;-67
2021/04/19 04:24:35;;;;;;;40.37;24.47;;;;;;;8.53;83.52;101284.38;5032723;28;20225;-68
2021/04/19 04:27:02;;;;;;;38.30;25.40;;;;;;;8.51;82.82;101278.28;5041480;28;20659;-68
2021/04/19 04:29:28;;;;;;;36.33;24.20;;;;;;;8.50;83.05;101281.88;5037820;28;20214;-67
2021/04/19 04:31:54;;;;;;;35.23;23.53;;;;;;;8.48;83.77;101289.03;5040881;28;20237;-67
2021/04/19 04:34:20;;;;;;;40.37;25.27;;;;;;;8.46;83.77;101284.72;5043532;28;20225;-67
2021/04/19 04:36:46;;;;;;;37.67;24.00;;;;;;;8.44;83.13;101289.22;5044489;28;20198;-67
2021/04/19 04:39:12;;;;;;;36.63;23.43;;;;;;;8.41;83.63;101286.72;5047545;28;20578;-69
2021/04/19 04:41:38;;;;;;;38.97;24.40;;;;;;;8.37;83.68;101291.31;5049916;28;20718;-68
2021/04/19 04:44:08;;;;;;;38.43;25.00;;;;;;;8.34;83.85;101278.16;5047813;28;20221;-67
2021/04/19 04:46:38;;;;;;;38.87;25.67;;;;;;;8.31;83.36;101286.22;5044737;28;20240;-67
2021/04/19 04:49:09;;;;;;;39.93;24.23;;;;;;;8.28;83.54;101289.88;5045584;28;20212;-68
2021/04/19 04:51:37;;;;;;;42.97;24.47;;;;;;;8.26;83.69;101291.72;5046249;28;20236;-67
2021/04/19 04:54:08;;;;;;;38.70;24.03;;;;;;;8.23;83.91;101294.53;5047090;28;20582;-67
2021/04/19 04:56:36;;;;;;;41.30;25.90;;;;;;;8.22;83.74;101297.25;5045384;28;20214;-67
2021/04/19 04:59:04;;;;;;;44.23;25.80;;;;;;;8.19;83.57;101302.69;5046751;28;20617;-66
2021/04/19 05:01:33;;;;;;;42.73;25.97;;;;;;;8.16;83.01;101303.69;5047563;28;20667;-65
2021/04/19 05:04:00;;;;;;;44.53;26.93;;;;;;;8.15;83.20;101307.25;5048644;28;20698;-67
2021/04/19 05:06:28;;;;;;;47.83;27.07;;;;;;;8.16;83.90;101305.47;5044738;28;20686;-67
2021/04/19 05:08:55;;;;;;;47.97;26.50;;;;;;;8.16;83.89;101306.34;5039730;28;20210;-69
2021/04/19 05:11:21;;;;;;;46.03;26.87;;;;;;;8.19;83.41;101313.31;5048935;28;20557;-67
2021/04/19 05:13:48;;;;;;;43.97;25.37;;;;;;;8.18;83.58;101315.09;5046208;28;20194;-67
2021/04/19 05:16:24;;;;;;;46.03;25.40;;;;;;;8.18;83.81;101315.09;5046566;28;20216;-68
2021/04/19 05:18:51;;;;;;;43.93;24.83;;;;;;;8.17;83.64;101316.03;5045929;28;20216;-66
2021/04/19 05:21:17;;;;;;;41.13;24.60;;;;;;;8.15;83.22;101322.31;5044532;28;20201;-67
2021/04/19 05:23:43;;;;;;;38.93;23.20;;;;;;;8.17;83.40;101320.47;5047243;28;20229;-67
2021/04/19 05:26:09;;;;;;;41.07;25.47;;;;;;;8.17;83.66;101316.03;5044559;28;20317;-67
2021/04/19 05:28:40;;;;;;;41.97;23.23;;;;;;;8.19;82.73;101318.59;5047849;28;20235;-69
2021/04/19 05:31:06;;;;;;;35.77;24.00;;;;;;;8.21;82.73;101324.72;5046031;28;20202;-67
2021/04/19 05:33:32;;;;;;;42.03;23.87;;;;;;;8.22;83.02;101324.66;5045903;28;20218;-67
2021/04/19 05:35:59;;;;;;;39.23;23.30;;;;;;;8.24;83.38;101322.78;5045632;28;20205;-67
2021/04/19 05:38:26;;;;;;;37.70;22.17;;;;;;;8.25;82.83;101324.50;5050459;28;20206;-67
2021/04/19 05:40:53;;;;;;;32.33;21.87;;;;;;;8.27;82.50;101322.63;5040782;28;20209;-67
2021/04/19 05:43:19;;;;;;;34.83;22.20;;;;;;;8.30;83.20;101333.13;5052218;28;20233;-67
2021/04/19 05:45:50;;;;;;;33.23;22.27;;;;;;;8.31;82.64;101334.84;5050199;28;20198;-67
2021/04/19 05:48:17;;;;;;;31.30;21.37;;;;;;;8.32;82.10;101325.13;5051443;28;20205;-67
2021/04/19 05:50:47;;;;;;;32.40;21.50;;;;;;;8.35;83.04;101335.63;5050561;28;20221;-67
2021/04/19 05:53:15;;;;;;;34.10;21.83;;;;;;;8.38;82.38;101335.50;5046950;28;20216;-67
2021/04/19 05:55:43;;;;;;;36.90;22.57;;;;;;;8.41;82.70;101331.84;5052944;28;20198;-67
2021/04/19 05:58:20;;;;;;;34.97;22.50;;;;;;;8.44;82.97;101337.00;5047985;28;20208;-68
2021/04/19 06:00:50;;;;;;;40.83;24.43;;;;;;;8.47;82.89;101348.34;5048637;28;20561;-67
2021/04/19 06:03:21;;;;;;;43.53;23.80;;;;;;;8.52;83.03;101348.16;5050305;28;20612;-67
2021/04/19 06:05:56;;;;;;;38.07;23.67;;;;;;;8.55;82.91;101345.38;5042576;28;20202;-67
2021/04/19 06:08:29;;;;;;;41.40;24.37;;;;;;;8.60;82.43;101346.03;5052228;28;20201;-67
2021/04/19 06:11:01;;;;;;;42.87;24.50;;;;;;;8.64;83.22;101350.28;5049636;28;20206;-67
2021/04/19 06:13:28;;;;;;;42.63;25.67;;;;;;;8.68;82.46;101352.72;5051501;28;20229;-66
2021/04/19 06:15:58;;;;;;;41.20;24.83;;;;;;;8.70;82.01;101350.88;5046985;28;20671;-67
2021/04/19 06:18:26;;;;;;;38.90;24.43;;;;;;;8.73;82.32;101346.38;5056359;28;20217;-67
2021/04/19 06:30:59;;;;;;;35.67;21.60;;;;;;;8.85;83.14;101357.28;5047104;28;20193;-67
2021/04/19 06:33:26;;;;;;;31.33;21.43;;;;;;;8.90;82.71;101351.78;5044456;28;20222;-67
2021/04/19 06:35:53;;;;;;;29.13;20.07;;;;;;;8.94;82.40;101356.88;5048725;28;20305;-67
2021/04/19 06:38:19;;;;;;;28.27;18.97;;;;;;;8.99;82.11;101349.56;5052204;28;20197;-67
2021/04/19 06:40:46;;;;;;;26.57;19.80;;;;;;;9.00;82.47;101359.25;5038797;28;20210;-67
2021/04/19 06:43:13;;;;;;;23.83;16.90;;;;;;;9.01;82.35;101357.47;5046922;28;20279;-68
2021/04/19 06:45:40;;;;;;;24.13;17.63;;;;;;;9.00;82.17;101361.91;5049108;28;20692;-68
2021/04/19 06:48:10;;;;;;;28.07;19.97;;;;;;;8.99;81.73;101361.97;5039050;28;20662;-67
2021/04/19 06:50:37;;;;;;;22.87;18.07;;;;;;;8.97;81.71;101371.81;5036027;28;20620;-67
2021/04/19 06:53:04;;;;;;;25.63;17.73;;;;;;;8.98;81.67;101371.72;5033668;28;20279;-69
2021/04/19 06:55:30;;;;;;;20.43;16.40;;;;;;;9.02;81.61;101361.84;5036255;28;20290;-67
2021/04/19 06:57:57;;;;;;;19.60;16.00;;;;;;;9.02;81.51;101361.84;5035858;28;20753;-66
2021/04/19 07:00:25;;;;;;;18.57;15.37;;;;;;;9.04;81.76;101363.50;5039264;28;20210;-69
2021/04/19 07:02:53;;;;;;;22.00;16.37;;;;;;;9.08;81.29;101368.69;5037590;28;20237;-69
2021/04/19 07:05:22;;;;;;;19.70;15.63;;;;;;;9.09;80.95;101362.44;5036851;28;20718;-67
2021/04/19 07:07:57;;;;;;;25.17;16.93;;;;;;;9.10;80.91;101357.06;5035315;28;20210;-67
2021/04/19 07:10:23;;;;;;;27.07;19.33;;;;;;;9.13;80.40;101362.22;5035643;28;20201;-66
2021/04/19 07:12:50;;;;;;;27.80;19.07;;;;;;;9.15;80.42;101356.81;5037218;28;20221;-67
2021/04/19 07:15:18;;;;;;;23.53;17.90;;;;;;;9.17;80.56;101358.47;5044842;28;20205;-69
2021/04/19 07:17:45;;;;;;;23.23;16.97;;;;;;;9.18;80.46;101356.69;5044986;28;20205;-69
2021/04/19 07:20:13;;;;;;;19.80;15.10;;;;;;;9.20;80.48;101361.00;5038879;28;20206;-67
2021/04/19 07:22:40;;;;;;;20.73;15.97;;;;;;;9.25;80.17;101360.78;5041860;28;20236;-69
2021/04/19 07:25:07;;;;;;;22.23;17.33;;;;;;;9.26;80.28;101365.16;5043992;28;20252;-68
2021/04/19 07:27:34;;;;;;;22.80;17.63;;;;;;;9.28;79.83;101355.34;5042251;28;20198;-69
2021/04/19 07:30:00;;;;;;;41.83;26.57;;;;;;;9.30;79.79;101353.47;5046433;28;20210;-68
2021/04/19 07:32:33;;;;;;;54.63;33.07;;;;;;;9.32;80.07;101356.88;5038360;28;20226;-66
2021/04/19 07:35:00;;;;;;;48.63;30.93;;;;;;;9.34;79.32;101357.69;5043000;28;20229;-69
2021/04/19 07:37:26;;;;;;;53.63;33.43;;;;;;;9.36;79.06;101355.81;5039741;28;20206;-69
2021/04/19 07:39:53;;;;;;;54.40;33.33;;;;;;;9.38;79.47;101361.94;5042031;28;20292;-67
2021/04/19 07:42:19;;;;;;;50.07;30.93;;;;;;;9.36;78.49;101361.13;5043343;28;20273;-68
2021/04/19 07:44:47;;;;;;;54.70;34.67;;;;;;;9.35;78.97;101352.31;5039681;28;20222;-69
2021/04/19 07:47:22;;;;;;;59.33;36.13;;;;;;;9.36;78.91;101359.34;5040810;28;20589;-68
2021/04/19 07:49:59;;;;;;;52.67;31.93;;;;;;;9.39;78.84;101358.34;5041038;28;20589;-68
2021/04/19 07:52:26;;;;;;;55.40;33.53;;;;;;;9.40;78.63;101363.59;5039099;28;20606;-67
2021/04/19 07:55:05;;;;;;;53.73;34.27;;;;;;;9.43;78.67;101356.41;5037517;28;20216;-68
2021/04/19 07:57:31;;;;;;;51.80;33.20;;;;;;;9.45;78.52;101357.19;5037253;28;20226;-68
2021/04/19 07:59:57;;;;;;;55.57;34.40;;;;;;;9.49;78.36;101349.00;5043658;28;20210;-69
2021/04/19 08:02:23;;;;;;;57.40;34.07;;;;;;;9.55;77.70;101361.13;5035256;28;20221;-68
2021/04/19 08:04:51;;;;;;;64.10;37.20;;;;;;;9.58;78.42;101367.16;5038552;28;20270;-68
2021/04/19 08:07:21;;;;;;;54.23;31.93;;;;;;;9.65;78.14;101359.78;5035561;28;20202;-69
2021/04/19 08:09:55;;;;;;;48.33;31.10;;;;;;;9.69;77.83;101366.63;5037499;28;20255;-68
2021/04/19 08:12:41;;;;;;;49.37;31.47;;;;;;;9.73;77.38;101355.78;5034810;28;20230;-69
2021/04/19 08:15:09;;;;;;;34.67;25.50;;;;;;;9.79;77.09;101356.44;5035553;28;20209;-68
2021/04/19 08:17:35;;;;;;;33.90;23.37;;;;;;;9.82;77.00;101361.63;5038094;28;20210;-69
2021/04/19 08:20:06;;;;;;;35.53;24.57;;;;;;;9.84;76.74;101351.75;5034900;28;20221;-69
2021/04/19 08:22:32;;;;;;;36.57;24.17;;;;;;;9.89;77.04;101363.00;5038092;28;20282;-68
2021/04/19 08:25:10;;;;;;;33.03;23.43;;;;;;;9.91;76.59;101366.47;5038417;28;20237;-69
2021/04/19 08:27:37;;;;;;;30.63;21.27;;;;;;;9.95;76.73;101362.72;5038888;28;20674;-66
2021/04/19 08:30:04;;;;;;;25.83;20.23;;;;;;;9.97;76.38;101363.50;5041526;28;20282;-68
2021/04/19 08:32:32;;;;;;;30.23;21.53;;;;;;;9.98;76.50;101363.44;5039204;28;20217;-69
2021/04/19 08:35:00;;;;;;;28.60;21.13;;;;;;;10.01;76.69;101365.94;5039393;28;20202;-68
2021/04/19 08:37:28;;;;;;;28.47;20.67;;;;;;;10.03;76.05;101365.88;5041442;28;20202;-70
2021/04/19 08:39:56;;;;;;;29.07;19.60;;;;;;;10.06;76.45;101371.03;5037782;28;20248;-69
2021/04/19 08:42:22;;;;;;;28.93;20.43;;;;;;;10.08;75.93;101372.69;5041856;28;20713;-70
2021/04/19 08:44:52;;;;;;;32.53;22.10;;;;;;;10.11;75.87;101369.00;5044522;28;20225;-69
2021/04/19 08:47:20;;;;;;;31.53;21.93;;;;;;;10.16;75.58;101366.13;5041258;28;20384;-68
2021/04/19 08:49:46;;;;;;;30.00;21.13;;;;;;;10.20;75.52;101363.28;5036607;28;20209;-69
2021/04/19 08:52:14;;;;;;;31.83;22.23;;;;;;;10.29;75.53;101372.56;5041817;28;20602;-68
2021/04/19 08:54:40;;;;;;;32.60;21.83;;;;;;;10.34;75.41;101365.22;5042550;28;20202;-68
2021/04/19 08:57:06;;;;;;;30.03;21.00;;;;;;;10.38;75.49;101372.13;5042371;28;20216;-68
2021/04/19 08:59:32;;;;;;;34.27;22.57;;;;;;;10.41;75.05;101380.78;5040548;28;20213;-68
2021/04/19 09:01:59;;;;;;;32.53;21.87;;;;;;;10.41;75.04;101377.25;5042582;28;20217;-68
2021/04/19 09:04:25;;;;;;;36.73;22.80;;;;;;;10.41;74.42;101377.25;5041279;28;20430;-68
2021/04/19 09:06:54;;;;;;;33.87;22.20;;;;;;;10.40;74.04;101370.22;5041835;28;20628;-67
2021/04/19 09:09:39;;;;;;;32.57;21.90;;;;;;;10.38;74.13;101383.63;5042137;28;20204;-69
2021/04/19 09:12:28;;;;;;;28.10;19.53;;;;;;;10.40;73.71;101378.22;5054296;28;20229;-68
2021/04/19 09:15:17;;;;;;;25.03;19.40;;;;;;;10.39;73.42;101385.34;5050332;28;20288;-69
2021/04/19 09:18:00;;;;;;;24.17;19.40;;;;;;;10.39;73.53;101384.50;5044957;28;20293;-69
2021/04/19 09:20:33;;;;;;;29.90;21.00;;;;;;;10.37;73.75;101383.72;5045531;28;20279;-68
2021/04/19 09:23:17;;;;;;;27.40;19.77;;;;;;;10.35;73.66;101383.78;5077819;23;20598;-89
2021/04/19 09:25:44;;;;;;;28.63;20.00;;;;;;;10.34;73.52;101381.19;5093759;28;20229;-90
2021/04/19 09:28:10;;;;;;;29.10;21.27;;;;;;;10.36;74.05;101384.66;5095337;28;20647;-90
2021/04/19 09:30:45;;;;;;;32.57;21.80;;;;;;;10.44;74.62;101377.97;5090628;28;20209;-91
2021/04/19 09:33:24;;;;;;;30.77;21.70;;;;;;;10.55;74.55;101384.56;5093297;28;21423;-91
2021/04/19 09:35:52;;;;;;;30.53;21.70;;;;;;;10.62;73.98;101383.28;5093824;28;20211;-90
2021/04/19 09:38:51;;;;;;;33.67;21.60;;;;;;;10.67;73.90;101381.25;5095904;28;20283;-90
2021/04/19 09:41:21;;;;;;;30.43;21.27;;;;;;;10.76;73.74;101376.31;5093743;28;20192;-91
2021/04/19 09:43:52;;;;;;;31.00;22.10;;;;;;;10.85;73.51;101377.63;5096899;28;20203;-90
2021/04/19 09:46:30;;;;;;;31.13;22.27;;;;;;;10.94;73.42;101376.28;5099317;28;20228;-91
2021/04/19 09:49:03;;;;;;;31.77;22.47;;;;;;;10.99;73.14;101383.09;5117428;28;20248;-89
2021/04/19 09:51:40;;;;;;;29.93;22.87;;;;;;;11.05;72.93;101377.44;5115861;28;20233;-87
2021/04/19 09:54:09;;;;;;;29.07;21.20;;;;;;;11.05;72.47;101377.44;5109795;28;20674;-90
2021/04/19 09:56:38;;;;;;;29.03;21.37;;;;;;;11.05;72.37;101379.25;5098257;28;20236;-92
2021/04/19 09:59:06;;;;;;;30.13;21.77;;;;;;;11.06;72.32;101378.31;5094305;28;20204;-92
2021/04/19 10:01:35;;;;;;;28.83;20.90;;;;;;;11.10;72.26;101380.72;5091954;28;20678;-89
2021/04/19 10:04:06;;;;;;;28.63;20.60;;;;;;;11.11;72.00;101385.09;5090427;28;20271;-89
2021/04/19 10:06:43;;;;;;;27.60;20.73;;;;;;;11.19;71.78;101374.03;5097541;28;20595;-90
2021/04/19 10:09:11;;;;;;;34.03;22.53;;;;;;;11.29;71.95;101372.56;5096295;28;20196;-91
2021/04/19 10:11:43;;;;;;;29.60;22.20;;;;;;;11.41;71.95;101369.25;5095364;28;20209;-90
2021/04/19 10:14:15;;;;;;;28.50;21.57;;;;;;;11.54;72.00;101366.75;5095421;28;20208;-92
2021/04/19 10:16:43;;;;;;;26.73;20.73;;;;;;;11.61;70.92;101373.47;5091643;28;20213;-90
2021/04/19 10:19:14;;;;;;;24.43;19.27;;;;;;;11.68;71.01;101373.97;5088019;28;20205;-90
2021/04/19 10:21:40;;;;;;;27.23;20.33;;;;;;;11.69;70.44;101368.53;5094287;28;20201;-91
2021/04/19 10:24:16;;;;;;;24.97;20.07;;;;;;;11.73;70.06;101370.09;5093407;28;20947;-93
2021/04/19 10:26:47;;;;;;;24.83;19.20;;;;;;;11.78;69.98;101380.56;5091752;28;20263;-89
2021/04/19 10:29:16;;;;;;;23.10;18.57;;;;;;;11.82;69.77;101380.25;5089606;28;20564;-90
2021/04/19 10:31:50;;;;;;;25.93;19.90;;;;;;;11.86;69.93;101372.09;5089340;28;20213;-92
2021/04/19 10:34:18;;;;;;;25.60;19.73;;;;;;;11.88;69.49;101371.06;5088276;28;20276;-89
2021/04/19 10:36:46;;;;;;;25.43;20.03;;;;;;;11.90;69.38;101373.66;5082291;28;20657;-93
2021/04/19 10:39:16;;;;;;;28.07;20.20;;;;;;;11.89;68.97;101369.25;5094936;28;20272;-93
2021/04/19 10:41:44;;;;;;;24.47;19.90;;;;;;;11.92;68.83;101363.75;5098408;28;20284;-92
2021/04/19 10:44:10;;;;;;;27.53;20.40;;;;;;;11.94;68.93;101354.69;5091577;28;20254;-92
2021/04/19 10:46:38;;;;;;;25.97;20.80;;;;;;;11.98;68.71;101360.72;5093672;28;20249;-92
2021/04/19 10:49:07;;;;;;;27.90;20.90;;;;;;;12.05;68.44;101356.72;5093995;28;20198;-92
2021/04/19 10:51:38;;;;;;;25.07;19.57;;;;;;;12.12;68.49;101350.97;5090248;28;20284;-92
2021/04/19 10:54:06;;;;;;;26.83;20.17;;;;;;;12.21;68.44;101357.56;5090687;28;20233;-92
2021/04/19 10:56:33;;;;;;;27.17;20.83;;;;;;;12.27;68.17;101351.88;5088895;28;20221;-92
2021/04/19 10:59:02;;;;;;;26.97;20.63;;;;;;;12.29;67.60;101349.97;5094136;28;20251;-92
2021/04/19 11:01:33;;;;;;;28.70;22.40;;;;;;;12.31;67.26;101347.19;5111742;28;20228;-92
2021/04/19 11:04:02;;;;;;;28.87;21.23;;;;;;;12.38;67.25;101349.41;5114196;28;20221;-92
2021/04/19 11:06:28;;;;;;;26.93;21.50;;;;;;;12.44;66.92;101343.69;5113112;28;20268;-89
2021/04/19 11:08:57;;;;;;;29.63;21.73;;;;;;;12.54;67.07;101343.16;5116518;28;20199;-90
2021/04/19 11:11:34;;;;;;;29.30;21.47;;;;;;;12.65;67.01;101340.69;5104002;28;20195;-90
2021/04/19 11:14:12;;;;;;;33.70;24.67;;;;;;;12.81;66.89;101336.13;5115353;28;20191;-91
2021/04/19 11:16:52;;;;;;;28.50;22.27;;;;;;;12.89;66.22;101327.63;5116352;28;20228;-92
2021/04/19 11:19:30;;;;;;;31.73;23.70;;;;;;;12.95;65.57;101319.22;5094694;28;20204;-92
2021/04/19 11:21:57;;;;;;;30.23;22.97;;;;;;;12.99;65.66;101318.94;5090069;28;20208;-91
2021/04/19 11:24:35;;;;;;;32.03;23.63;;;;;;;13.05;64.66;101323.03;5093688;28;20250;-91
2021/04/19 11:27:08;;;;;;;33.40;24.13;;;;;;;13.12;64.52;101325.22;5091708;28;20242;-93
2021/04/19 11:29:40;;;;;;;31.47;24.27;;;;;;;13.15;63.98;101321.53;5092048;28;20211;-90
2021/04/19 11:32:07;;;;;;;33.40;24.17;;;;;;;13.20;63.74;101325.63;5090295;28;20204;-91
2021/04/19 11:34:38;;;;;;;31.80;24.93;;;;;;;13.34;64.00;101326.56;5091644;28;20216;-91